sensor_id;sensor_type;location;lat;lon;timestamp;P1;durP1;ratioP1;P2;durP2;ratioP2
17991;SDS011;9121;50.926;5.340;2023-02-03T00:00:38;8.43;;;3.57;;
17991;SDS011;9121;50.926;5.340;2023-02-03T00:03:05;12.77;;;3.57;;
17991;SDS011;9121;50.926;5.340;2023-02-03T00:05:33;7.10;;;3.00;;
17991;SDS011;9121;50.926;5.340;2023-02-03T00:08:02;11.83;;;3.83;;
17991;SDS011;9121;50.926;5.340;2023-02-03T00:10:29;13.40;;;3.13;;
17991;SDS011;9121;50.926;5.340;2023-02-03T00:12:56;11.83;;;3.30;;
17991;SDS011;9121;50.926;5.340;2023-02-03T00:15:23;13.33;;;2.97;;
17991;SDS011;9121;50.926;5.340;2023-02-03T00:17:50;10.83;;;2.70;;
17991;SDS011;9121;50.926;5.340;2023-02-03T00:20:17;13.77;;;2.87;;
17991;SDS011;9121;50.926;5.340;2023-02-03T00:22:46;11.63;;;3.23;;
17991;SDS011;9121;50.926;5.340;2023-02-03T00:25:13;14.87;;;3.27;;
17991;SDS011;9121;50.926;5.340;2023-02-03T00:27:40;20.80;;;3.83;;
17991;SDS011;9121;50.926;5.340;2023-02-03T00:30:07;10.50;;;3.00;;
17991;SDS011;9121;50.926;5.340;2023-02-03T00:32:35;8.63;;;2.83;;
17991;SDS011;9121;50.926;5.340;2023-02-03T00:35:02;13.50;;;4.63;;
17991;SDS011;9121;50.926;5.340;2023-02-03T00:37:30;13.43;;;3.03;;
17991;SDS011;9121;50.926;5.340;2023-02-03T00:39:58;10.73;;;3.10;;
17991;SDS011;9121;50.926;5.340;2023-02-03T00:42:25;12.47;;;3.27;;
17991;SDS011;9121;50.926;5.340;2023-02-03T00:44:52;11.97;;;3.37;;
17991;SDS011;9121;50.926;5.340;2023-02-03T00:47:19;8.30;;;2.67;;
17991;SDS011;9121;50.926;5.340;2023-02-03T00:49:46;9.73;;;3.03;;
17991;SDS011;9121;50.926;5.340;2023-02-03T00:52:14;12.20;;;3.13;;
17991;SDS011;9121;50.926;5.340;2023-02-03T00:54:41;15.43;;;3.30;;
17991;SDS011;9121;50.926;5.340;2023-02-03T00:57:12;6.00;;;2.93;;
17991;SDS011;9121;50.926;5.340;2023-02-03T00:59:39;9.97;;;3.20;;
17991;SDS011;9121;50.926;5.340;2023-02-03T01:02:06;9.47;;;2.70;;
17991;SDS011;9121;50.926;5.340;2023-02-03T01:04:33;10.07;;;2.83;;
17991;SDS011;9121;50.926;5.340;2023-02-03T01:07:00;8.87;;;3.03;;
17991;SDS011;9121;50.926;5.340;2023-02-03T01:09:27;11.40;;;2.40;;
17991;SDS011;9121;50.926;5.340;2023-02-03T01:11:54;11.63;;;2.80;;
17991;SDS011;9121;50.926;5.340;2023-02-03T01:14:22;8.47;;;2.83;;
17991;SDS011;9121;50.926;5.340;2023-02-03T01:16:49;8.03;;;2.90;;
17991;SDS011;9121;50.926;5.340;2023-02-03T01:19:16;16.47;;;3.53;;
17991;SDS011;9121;50.926;5.340;2023-02-03T01:21:43;5.67;;;2.57;;
17991;SDS011;9121;50.926;5.340;2023-02-03T01:24:10;13.30;;;3.67;;
17991;SDS011;9121;50.926;5.340;2023-02-03T01:26:39;8.73;;;2.77;;
17991;SDS011;9121;50.926;5.340;2023-02-03T01:29:06;9.10;;;3.17;;
17991;SDS011;9121;50.926;5.340;2023-02-03T01:31:35;12.87;;;3.40;;
17991;SDS011;9121;50.926;5.340;2023-02-03T01:34:05;8.63;;;3.13;;
17991;SDS011;9121;50.926;5.340;2023-02-03T01:36:33;10.27;;;2.93;;
17991;SDS011;9121;50.926;5.340;2023-02-03T01:39:00;12.30;;;3.03;;
17991;SDS011;9121;50.926;5.340;2023-02-03T01:41:29;14.47;;;3.70;;
17991;SDS011;9121;50.926;5.340;2023-02-03T01:43:59;12.80;;;3.00;;
17991;SDS011;9121;50.926;5.340;2023-02-03T01:46:28;16.07;;;3.23;;
17991;SDS011;9121;50.926;5.340;2023-02-03T01:49:02;14.03;;;3.47;;
17991;SDS011;9121;50.926;5.340;2023-02-03T01:51:33;12.97;;;3.37;;
17991;SDS011;9121;50.926;5.340;2023-02-03T01:54:02;11.67;;;2.97;;
17991;SDS011;9121;50.926;5.340;2023-02-03T01:56:32;9.43;;;3.60;;
17991;SDS011;9121;50.926;5.340;2023-02-03T01:59:03;11.43;;;3.40;;
17991;SDS011;9121;50.926;5.340;2023-02-03T02:01:31;11.90;;;3.33;;
17991;SDS011;9121;50.926;5.340;2023-02-03T02:04:01;10.27;;;2.87;;
17991;SDS011;9121;50.926;5.340;2023-02-03T02:06:30;12.27;;;2.83;;
17991;SDS011;9121;50.926;5.340;2023-02-03T02:08:57;17.17;;;2.80;;
17991;SDS011;9121;50.926;5.340;2023-02-03T02:11:26;9.47;;;2.70;;
17991;SDS011;9121;50.926;5.340;2023-02-03T02:13:54;9.00;;;3.27;;
17991;SDS011;9121;50.926;5.340;2023-02-03T02:16:26;10.93;;;2.93;;
17991;SDS011;9121;50.926;5.340;2023-02-03T02:19:04;12.03;;;2.90;;
17991;SDS011;9121;50.926;5.340;2023-02-03T02:21:58;12.80;;;3.20;;
17991;SDS011;9121;50.926;5.340;2023-02-03T02:28:01;8.07;;;2.90;;
17991;SDS011;9121;50.926;5.340;2023-02-03T02:30:56;10.17;;;2.93;;
17991;SDS011;9121;50.926;5.340;2023-02-03T02:33:39;10.17;;;3.07;;
17991;SDS011;9121;50.926;5.340;2023-02-03T02:36:09;12.93;;;3.57;;
17991;SDS011;9121;50.926;5.340;2023-02-03T02:38:48;14.37;;;3.10;;
17991;SDS011;9121;50.926;5.340;2023-02-03T02:41:23;15.77;;;3.57;;
17991;SDS011;9121;50.926;5.340;2023-02-03T02:43:57;17.50;;;3.40;;
17991;SDS011;9121;50.926;5.340;2023-02-03T02:46:30;12.63;;;3.10;;
17991;SDS011;9121;50.926;5.340;2023-02-03T02:49:03;8.90;;;2.57;;
17991;SDS011;9121;50.926;5.340;2023-02-03T02:51:35;15.20;;;3.20;;
17991;SDS011;9121;50.926;5.340;2023-02-03T02:54:04;10.17;;;2.77;;
17991;SDS011;9121;50.926;5.340;2023-02-03T02:56:34;13.07;;;3.10;;
17991;SDS011;9121;50.926;5.340;2023-02-03T02:59:04;15.10;;;2.93;;
17991;SDS011;9121;50.926;5.340;2023-02-03T03:01:32;14.73;;;3.03;;
17991;SDS011;9121;50.926;5.340;2023-02-03T03:04:00;10.87;;;2.90;;
17991;SDS011;9121;50.926;5.340;2023-02-03T03:06:31;12.80;;;3.43;;
17991;SDS011;9121;50.926;5.340;2023-02-03T03:09:02;23.23;;;3.07;;
17991;SDS011;9121;50.926;5.340;2023-02-03T03:11:32;16.50;;;2.80;;
17991;SDS011;9121;50.926;5.340;2023-02-03T03:14:03;8.63;;;2.40;;
17991;SDS011;9121;50.926;5.340;2023-02-03T03:16:32;16.67;;;3.33;;
17991;SDS011;9121;50.926;5.340;2023-02-03T03:19:04;15.00;;;3.50;;
17991;SDS011;9121;50.926;5.340;2023-02-03T03:21:36;10.87;;;2.60;;
17991;SDS011;9121;50.926;5.340;2023-02-03T03:24:09;12.57;;;2.87;;
17991;SDS011;9121;50.926;5.340;2023-02-03T03:26:41;13.97;;;2.37;;
17991;SDS011;9121;50.926;5.340;2023-02-03T03:29:12;14.40;;;2.90;;
17991;SDS011;9121;50.926;5.340;2023-02-03T03:31:44;13.57;;;2.43;;
17991;SDS011;9121;50.926;5.340;2023-02-03T03:34:13;10.43;;;2.73;;
17991;SDS011;9121;50.926;5.340;2023-02-03T03:36:41;14.23;;;2.70;;
17991;SDS011;9121;50.926;5.340;2023-02-03T03:39:12;16.97;;;2.80;;
17991;SDS011;9121;50.926;5.340;2023-02-03T03:41:47;17.83;;;2.90;;
17991;SDS011;9121;50.926;5.340;2023-02-03T03:44:22;12.67;;;2.47;;
17991;SDS011;9121;50.926;5.340;2023-02-03T03:46:55;16.13;;;3.00;;
17991;SDS011;9121;50.926;5.340;2023-02-03T03:49:39;13.90;;;2.30;;
17991;SDS011;9121;50.926;5.340;2023-02-03T03:52:08;10.80;;;2.30;;
17991;SDS011;9121;50.926;5.340;2023-02-03T03:54:40;14.73;;;2.30;;
17991;SDS011;9121;50.926;5.340;2023-02-03T03:57:09;17.47;;;1.93;;
17991;SDS011;9121;50.926;5.340;2023-02-03T03:59:39;16.03;;;2.87;;
17991;SDS011;9121;50.926;5.340;2023-02-03T04:02:10;11.60;;;2.50;;
17991;SDS011;9121;50.926;5.340;2023-02-03T04:04:40;8.17;;;2.33;;
17991;SDS011;9121;50.926;5.340;2023-02-03T04:07:11;13.83;;;2.37;;
17991;SDS011;9121;50.926;5.340;2023-02-03T04:09:38;11.10;;;2.10;;
17991;SDS011;9121;50.926;5.340;2023-02-03T04:12:08;8.67;;;2.30;;
17991;SDS011;9121;50.926;5.340;2023-02-03T04:14:42;6.87;;;1.90;;
17991;SDS011;9121;50.926;5.340;2023-02-03T04:17:09;12.40;;;2.63;;
17991;SDS011;9121;50.926;5.340;2023-02-03T04:19:36;12.53;;;2.40;;
17991;SDS011;9121;50.926;5.340;2023-02-03T04:22:04;11.33;;;2.10;;
17991;SDS011;9121;50.926;5.340;2023-02-03T04:24:31;7.90;;;2.10;;
17991;SDS011;9121;50.926;5.340;2023-02-03T04:26:58;10.23;;;2.00;;
17991;SDS011;9121;50.926;5.340;2023-02-03T04:29:25;9.67;;;1.97;;
17991;SDS011;9121;50.926;5.340;2023-02-03T04:31:52;6.90;;;1.73;;
17991;SDS011;9121;50.926;5.340;2023-02-03T04:34:20;9.37;;;1.90;;
17991;SDS011;9121;50.926;5.340;2023-02-03T04:36:47;13.27;;;2.00;;
17991;SDS011;9121;50.926;5.340;2023-02-03T04:39:15;10.53;;;1.70;;
17991;SDS011;9121;50.926;5.340;2023-02-03T04:41:42;10.63;;;1.90;;
17991;SDS011;9121;50.926;5.340;2023-02-03T04:44:09;9.93;;;1.87;;
17991;SDS011;9121;50.926;5.340;2023-02-03T04:46:36;8.93;;;1.90;;
17991;SDS011;9121;50.926;5.340;2023-02-03T04:49:03;5.90;;;1.60;;
17991;SDS011;9121;50.926;5.340;2023-02-03T04:51:30;11.63;;;2.03;;
17991;SDS011;9121;50.926;5.340;2023-02-03T04:53:56;8.63;;;1.90;;
17991;SDS011;9121;50.926;5.340;2023-02-03T04:56:25;8.87;;;1.87;;
17991;SDS011;9121;50.926;5.340;2023-02-03T04:58:52;13.40;;;2.10;;
17991;SDS011;9121;50.926;5.340;2023-02-03T05:01:19;12.30;;;2.43;;
17991;SDS011;9121;50.926;5.340;2023-02-03T05:03:46;10.60;;;2.00;;
17991;SDS011;9121;50.926;5.340;2023-02-03T05:06:12;7.17;;;1.80;;
17991;SDS011;9121;50.926;5.340;2023-02-03T05:08:39;8.30;;;2.27;;
17991;SDS011;9121;50.926;5.340;2023-02-03T05:11:06;6.20;;;1.77;;
17991;SDS011;9121;50.926;5.340;2023-02-03T05:13:34;8.33;;;1.90;;
17991;SDS011;9121;50.926;5.340;2023-02-03T05:16:01;7.40;;;1.67;;
17991;SDS011;9121;50.926;5.340;2023-02-03T05:18:29;13.00;;;2.10;;
17991;SDS011;9121;50.926;5.340;2023-02-03T05:20:56;11.17;;;2.20;;
17991;SDS011;9121;50.926;5.340;2023-02-03T05:23:22;8.10;;;1.80;;
17991;SDS011;9121;50.926;5.340;2023-02-03T05:25:49;10.90;;;1.80;;
17991;SDS011;9121;50.926;5.340;2023-02-03T05:28:16;9.80;;;1.70;;
17991;SDS011;9121;50.926;5.340;2023-02-03T05:30:45;8.93;;;2.43;;
17991;SDS011;9121;50.926;5.340;2023-02-03T05:33:12;9.90;;;2.13;;
17991;SDS011;9121;50.926;5.340;2023-02-03T05:35:38;9.73;;;1.90;;
17991;SDS011;9121;50.926;5.340;2023-02-03T05:38:06;10.67;;;2.20;;
17991;SDS011;9121;50.926;5.340;2023-02-03T05:40:33;7.17;;;1.83;;
17991;SDS011;9121;50.926;5.340;2023-02-03T05:43:22;13.23;;;2.07;;
17991;SDS011;9121;50.926;5.340;2023-02-03T05:45:50;16.33;;;2.00;;
17991;SDS011;9121;50.926;5.340;2023-02-03T05:48:17;7.97;;;2.00;;
17991;SDS011;9121;50.926;5.340;2023-02-03T05:50:45;13.17;;;2.50;;
17991;SDS011;9121;50.926;5.340;2023-02-03T05:53:12;9.20;;;1.70;;
17991;SDS011;9121;50.926;5.340;2023-02-03T05:55:39;13.13;;;2.10;;
17991;SDS011;9121;50.926;5.340;2023-02-03T05:58:06;8.83;;;1.87;;
17991;SDS011;9121;50.926;5.340;2023-02-03T06:00:33;9.90;;;1.83;;
17991;SDS011;9121;50.926;5.340;2023-02-03T06:03:02;11.70;;;2.10;;
17991;SDS011;9121;50.926;5.340;2023-02-03T06:05:29;9.13;;;1.80;;
17991;SDS011;9121;50.926;5.340;2023-02-03T06:07:57;11.13;;;2.30;;
17991;SDS011;9121;50.926;5.340;2023-02-03T06:10:25;10.07;;;1.63;;
17991;SDS011;9121;50.926;5.340;2023-02-03T06:12:52;8.40;;;1.53;;
17991;SDS011;9121;50.926;5.340;2023-02-03T06:15:19;12.77;;;1.80;;
17991;SDS011;9121;50.926;5.340;2023-02-03T06:17:47;7.50;;;1.50;;
17991;SDS011;9121;50.926;5.340;2023-02-03T06:20:16;6.13;;;1.50;;
17991;SDS011;9121;50.926;5.340;2023-02-03T06:22:45;9.70;;;2.30;;
17991;SDS011;9121;50.926;5.340;2023-02-03T06:25:12;10.43;;;2.00;;
17991;SDS011;9121;50.926;5.340;2023-02-03T06:27:39;10.70;;;2.23;;
17991;SDS011;9121;50.926;5.340;2023-02-03T06:30:06;8.43;;;2.50;;
17991;SDS011;9121;50.926;5.340;2023-02-03T06:32:35;8.43;;;2.10;;
17991;SDS011;9121;50.926;5.340;2023-02-03T06:35:02;6.77;;;2.10;;
17991;SDS011;9121;50.926;5.340;2023-02-03T06:37:30;6.07;;;2.20;;
17991;SDS011;9121;50.926;5.340;2023-02-03T06:39:57;8.60;;;2.23;;
17991;SDS011;9121;50.926;5.340;2023-02-03T06:42:24;13.80;;;2.40;;
17991;SDS011;9121;50.926;5.340;2023-02-03T06:44:51;11.00;;;2.37;;
17991;SDS011;9121;50.926;5.340;2023-02-03T06:47:19;12.63;;;2.00;;
17991;SDS011;9121;50.926;5.340;2023-02-03T06:49:46;16.33;;;2.90;;
17991;SDS011;9121;50.926;5.340;2023-02-03T06:52:13;10.43;;;2.30;;
17991;SDS011;9121;50.926;5.340;2023-02-03T06:54:42;9.03;;;2.03;;
17991;SDS011;9121;50.926;5.340;2023-02-03T06:57:09;6.73;;;1.80;;
17991;SDS011;9121;50.926;5.340;2023-02-03T06:59:35;8.90;;;1.90;;
17991;SDS011;9121;50.926;5.340;2023-02-03T07:02:03;6.63;;;1.80;;
17991;SDS011;9121;50.926;5.340;2023-02-03T07:04:30;9.87;;;1.73;;
17991;SDS011;9121;50.926;5.340;2023-02-03T07:06:57;7.00;;;1.83;;
17991;SDS011;9121;50.926;5.340;2023-02-03T07:09:24;10.53;;;1.93;;
17991;SDS011;9121;50.926;5.340;2023-02-03T07:11:52;7.93;;;2.33;;
17991;SDS011;9121;50.926;5.340;2023-02-03T07:14:19;11.47;;;1.77;;
17991;SDS011;9121;50.926;5.340;2023-02-03T07:16:46;9.90;;;1.80;;
17991;SDS011;9121;50.926;5.340;2023-02-03T07:19:13;9.33;;;1.67;;
17991;SDS011;9121;50.926;5.340;2023-02-03T07:21:40;8.80;;;1.60;;
17991;SDS011;9121;50.926;5.340;2023-02-03T07:24:06;8.67;;;1.80;;
17991;SDS011;9121;50.926;5.340;2023-02-03T07:26:33;5.00;;;1.50;;
17991;SDS011;9121;50.926;5.340;2023-02-03T07:29:02;6.13;;;1.60;;
17991;SDS011;9121;50.926;5.340;2023-02-03T07:31:29;10.67;;;2.70;;
17991;SDS011;9121;50.926;5.340;2023-02-03T07:33:56;9.07;;;1.80;;
17991;SDS011;9121;50.926;5.340;2023-02-03T07:36:25;9.37;;;1.70;;
17991;SDS011;9121;50.926;5.340;2023-02-03T07:38:53;8.37;;;1.60;;
17991;SDS011;9121;50.926;5.340;2023-02-03T07:41:20;4.93;;;1.40;;
17991;SDS011;9121;50.926;5.340;2023-02-03T07:43:47;5.87;;;1.67;;
17991;SDS011;9121;50.926;5.340;2023-02-03T07:46:15;6.67;;;1.77;;
17991;SDS011;9121;50.926;5.340;2023-02-03T07:48:42;10.53;;;1.87;;
17991;SDS011;9121;50.926;5.340;2023-02-03T07:51:09;6.27;;;1.40;;
17991;SDS011;9121;50.926;5.340;2023-02-03T07:53:36;7.13;;;1.90;;
17991;SDS011;9121;50.926;5.340;2023-02-03T07:56:04;12.07;;;1.63;;
17991;SDS011;9121;50.926;5.340;2023-02-03T07:58:31;10.40;;;2.20;;
17991;SDS011;9121;50.926;5.340;2023-02-03T08:00:58;5.23;;;1.50;;
17991;SDS011;9121;50.926;5.340;2023-02-03T08:03:27;10.37;;;2.00;;
17991;SDS011;9121;50.926;5.340;2023-02-03T08:05:54;6.50;;;2.07;;
17991;SDS011;9121;50.926;5.340;2023-02-03T08:08:21;8.27;;;2.00;;
17991;SDS011;9121;50.926;5.340;2023-02-03T08:10:48;9.53;;;1.87;;
17991;SDS011;9121;50.926;5.340;2023-02-03T08:13:14;11.37;;;2.40;;
17991;SDS011;9121;50.926;5.340;2023-02-03T08:15:41;10.30;;;1.90;;
17991;SDS011;9121;50.926;5.340;2023-02-03T08:18:08;8.30;;;1.80;;
17991;SDS011;9121;50.926;5.340;2023-02-03T08:20:38;9.30;;;1.90;;
17991;SDS011;9121;50.926;5.340;2023-02-03T08:23:05;8.93;;;1.70;;
17991;SDS011;9121;50.926;5.340;2023-02-03T08:25:32;13.00;;;2.10;;
17991;SDS011;9121;50.926;5.340;2023-02-03T08:27:59;11.33;;;2.70;;
17991;SDS011;9121;50.926;5.340;2023-02-03T08:30:26;6.70;;;1.70;;
17991;SDS011;9121;50.926;5.340;2023-02-03T08:32:53;7.53;;;2.40;;
17991;SDS011;9121;50.926;5.340;2023-02-03T08:35:20;8.10;;;2.70;;
17991;SDS011;9121;50.926;5.340;2023-02-03T08:37:49;7.47;;;2.00;;
17991;SDS011;9121;50.926;5.340;2023-02-03T08:40:16;6.07;;;1.80;;
17991;SDS011;9121;50.926;5.340;2023-02-03T08:42:43;12.57;;;1.97;;
17991;SDS011;9121;50.926;5.340;2023-02-03T08:45:10;8.93;;;1.77;;
17991;SDS011;9121;50.926;5.340;2023-02-03T08:47:37;9.20;;;1.70;;
17991;SDS011;9121;50.926;5.340;2023-02-03T08:50:05;9.07;;;2.13;;
17991;SDS011;9121;50.926;5.340;2023-02-03T08:52:33;10.43;;;2.10;;
17991;SDS011;9121;50.926;5.340;2023-02-03T08:55:01;8.00;;;2.30;;
17991;SDS011;9121;50.926;5.340;2023-02-03T08:57:30;12.90;;;2.70;;
17991;SDS011;9121;50.926;5.340;2023-02-03T08:59:59;10.33;;;2.27;;
17991;SDS011;9121;50.926;5.340;2023-02-03T09:02:26;10.73;;;1.97;;
17991;SDS011;9121;50.926;5.340;2023-02-03T09:04:53;9.03;;;1.93;;
17991;SDS011;9121;50.926;5.340;2023-02-03T09:07:19;23.00;;;2.63;;
17991;SDS011;9121;50.926;5.340;2023-02-03T09:09:46;14.07;;;1.73;;
17991;SDS011;9121;50.926;5.340;2023-02-03T09:12:15;6.67;;;1.60;;
17991;SDS011;9121;50.926;5.340;2023-02-03T09:14:42;8.03;;;1.70;;
17991;SDS011;9121;50.926;5.340;2023-02-03T09:17:09;8.20;;;1.80;;
17991;SDS011;9121;50.926;5.340;2023-02-03T09:19:36;6.77;;;1.53;;
17991;SDS011;9121;50.926;5.340;2023-02-03T09:22:03;6.47;;;1.73;;
17991;SDS011;9121;50.926;5.340;2023-02-03T09:24:30;7.97;;;1.80;;
17991;SDS011;9121;50.926;5.340;2023-02-03T09:26:58;10.50;;;1.87;;
17991;SDS011;9121;50.926;5.340;2023-02-03T09:29:27;6.93;;;1.97;;
17991;SDS011;9121;50.926;5.340;2023-02-03T09:31:54;6.47;;;1.73;;
17991;SDS011;9121;50.926;5.340;2023-02-03T09:34:21;7.90;;;1.90;;
17991;SDS011;9121;50.926;5.340;2023-02-03T09:36:48;7.93;;;2.00;;
17991;SDS011;9121;50.926;5.340;2023-02-03T09:39:15;9.60;;;2.40;;
17991;SDS011;9121;50.926;5.340;2023-02-03T09:44:50;8.17;;;2.10;;
17991;SDS011;9121;50.926;5.340;2023-02-03T09:47:26;7.33;;;2.13;;
17991;SDS011;9121;50.926;5.340;2023-02-03T09:49:55;8.67;;;2.57;;
17991;SDS011;9121;50.926;5.340;2023-02-03T09:52:25;14.97;;;2.57;;
17991;SDS011;9121;50.926;5.340;2023-02-03T09:54:56;6.97;;;2.50;;
17991;SDS011;9121;50.926;5.340;2023-02-03T09:57:29;11.47;;;2.43;;
17991;SDS011;9121;50.926;5.340;2023-02-03T10:00:01;6.47;;;2.10;;
17991;SDS011;9121;50.926;5.340;2023-02-03T10:02:42;14.53;;;2.50;;
17991;SDS011;9121;50.926;5.340;2023-02-03T10:05:21;7.90;;;2.00;;
17991;SDS011;9121;50.926;5.340;2023-02-03T10:07:58;11.13;;;2.20;;
17991;SDS011;9121;50.926;5.340;2023-02-03T10:10:35;10.00;;;2.40;;
17991;SDS011;9121;50.926;5.340;2023-02-03T10:13:08;9.97;;;2.63;;
17991;SDS011;9121;50.926;5.340;2023-02-03T10:15:58;13.93;;;2.67;;
17991;SDS011;9121;50.926;5.340;2023-02-03T10:18:33;9.87;;;2.47;;
17991;SDS011;9121;50.926;5.340;2023-02-03T10:21:05;9.87;;;2.43;;
17991;SDS011;9121;50.926;5.340;2023-02-03T10:23:40;9.07;;;2.50;;
17991;SDS011;9121;50.926;5.340;2023-02-03T10:26:12;5.83;;;2.33;;
17991;SDS011;9121;50.926;5.340;2023-02-03T10:28:44;12.10;;;2.90;;
17991;SDS011;9121;50.926;5.340;2023-02-03T10:31:18;12.60;;;2.27;;
17991;SDS011;9121;50.926;5.340;2023-02-03T10:33:47;7.60;;;2.63;;
17991;SDS011;9121;50.926;5.340;2023-02-03T10:36:20;15.67;;;5.57;;
17991;SDS011;9121;50.926;5.340;2023-02-03T10:38:51;5.97;;;2.47;;
17991;SDS011;9121;50.926;5.340;2023-02-03T10:41:24;8.27;;;2.90;;
17991;SDS011;9121;50.926;5.340;2023-02-03T10:43:53;6.73;;;2.57;;
17991;SDS011;9121;50.926;5.340;2023-02-03T10:46:26;8.90;;;2.53;;
17991;SDS011;9121;50.926;5.340;2023-02-03T10:48:54;4.93;;;3.00;;
17991;SDS011;9121;50.926;5.340;2023-02-03T10:51:23;9.57;;;3.40;;
17991;SDS011;9121;50.926;5.340;2023-02-03T10:53:51;10.20;;;2.90;;
17991;SDS011;9121;50.926;5.340;2023-02-03T10:56:19;8.90;;;3.23;;
17991;SDS011;9121;50.926;5.340;2023-02-03T10:58:49;8.27;;;3.40;;
17991;SDS011;9121;50.926;5.340;2023-02-03T11:01:22;11.17;;;3.63;;
17991;SDS011;9121;50.926;5.340;2023-02-03T11:03:56;10.23;;;3.63;;
17991;SDS011;9121;50.926;5.340;2023-02-03T11:06:24;9.80;;;3.53;;
17991;SDS011;9121;50.926;5.340;2023-02-03T11:08:52;8.13;;;3.80;;
17991;SDS011;9121;50.926;5.340;2023-02-03T11:11:20;11.97;;;4.17;;
17991;SDS011;9121;50.926;5.340;2023-02-03T11:13:52;12.97;;;3.97;;
17991;SDS011;9121;50.926;5.340;2023-02-03T11:16:36;8.67;;;4.07;;
17991;SDS011;9121;50.926;5.340;2023-02-03T11:19:03;10.87;;;4.30;;
17991;SDS011;9121;50.926;5.340;2023-02-03T11:21:39;13.97;;;4.57;;
17991;SDS011;9121;50.926;5.340;2023-02-03T11:24:10;14.00;;;4.40;;
17991;SDS011;9121;50.926;5.340;2023-02-03T11:26:43;7.10;;;4.13;;
17991;SDS011;9121;50.926;5.340;2023-02-03T11:29:14;6.10;;;3.73;;
17991;SDS011;9121;50.926;5.340;2023-02-03T11:31:46;7.87;;;3.73;;
17991;SDS011;9121;50.926;5.340;2023-02-03T11:34:16;10.43;;;3.67;;
17991;SDS011;9121;50.926;5.340;2023-02-03T11:36:48;11.17;;;4.60;;
17991;SDS011;9121;50.926;5.340;2023-02-03T11:39:16;9.10;;;3.93;;
17991;SDS011;9121;50.926;5.340;2023-02-03T11:41:46;13.47;;;4.70;;
17991;SDS011;9121;50.926;5.340;2023-02-03T11:44:18;10.50;;;4.13;;
17991;SDS011;9121;50.926;5.340;2023-02-03T11:46:49;8.67;;;4.40;;
17991;SDS011;9121;50.926;5.340;2023-02-03T11:49:28;10.13;;;4.60;;
17991;SDS011;9121;50.926;5.340;2023-02-03T11:52:30;10.00;;;5.10;;
17991;SDS011;9121;50.926;5.340;2023-02-03T11:55:20;7.57;;;4.73;;
17991;SDS011;9121;50.926;5.340;2023-02-03T11:58:00;15.37;;;6.33;;
17991;SDS011;9121;50.926;5.340;2023-02-03T12:00:38;9.97;;;4.93;;
17991;SDS011;9121;50.926;5.340;2023-02-03T12:03:17;9.97;;;4.80;;
17991;SDS011;9121;50.926;5.340;2023-02-03T12:09:04;14.07;;;5.13;;
17991;SDS011;9121;50.926;5.340;2023-02-03T12:11:52;12.03;;;5.57;;
17991;SDS011;9121;50.926;5.340;2023-02-03T12:14:46;11.00;;;5.10;;
17991;SDS011;9121;50.926;5.340;2023-02-03T12:17:23;9.17;;;5.13;;
17991;SDS011;9121;50.926;5.340;2023-02-03T12:20:11;11.00;;;5.63;;
17991;SDS011;9121;50.926;5.340;2023-02-03T12:22:55;9.10;;;4.90;;
17991;SDS011;9121;50.926;5.340;2023-02-03T12:25:32;12.37;;;4.73;;
17991;SDS011;9121;50.926;5.340;2023-02-03T12:28:09;11.00;;;5.00;;
17991;SDS011;9121;50.926;5.340;2023-02-03T12:30:43;15.20;;;5.33;;
17991;SDS011;9121;50.926;5.340;2023-02-03T12:33:15;11.43;;;4.87;;
17991;SDS011;9121;50.926;5.340;2023-02-03T12:35:49;11.67;;;5.30;;
17991;SDS011;9121;50.926;5.340;2023-02-03T12:38:23;12.03;;;5.13;;
17991;SDS011;9121;50.926;5.340;2023-02-03T12:40:56;9.80;;;5.30;;
17991;SDS011;9121;50.926;5.340;2023-02-03T12:43:26;12.83;;;5.13;;
17991;SDS011;9121;50.926;5.340;2023-02-03T12:46:03;12.07;;;5.43;;
17991;SDS011;9121;50.926;5.340;2023-02-03T12:48:41;11.00;;;5.30;;
17991;SDS011;9121;50.926;5.340;2023-02-03T12:51:17;9.43;;;5.57;;
17991;SDS011;9121;50.926;5.340;2023-02-03T12:53:55;10.60;;;5.13;;
17991;SDS011;9121;50.926;5.340;2023-02-03T12:56:26;13.33;;;5.60;;
17991;SDS011;9121;50.926;5.340;2023-02-03T12:58:59;13.03;;;6.50;;
17991;SDS011;9121;50.926;5.340;2023-02-03T13:01:32;11.53;;;5.00;;
17991;SDS011;9121;50.926;5.340;2023-02-03T13:04:04;10.13;;;5.20;;
17991;SDS011;9121;50.926;5.340;2023-02-03T13:06:40;10.67;;;5.73;;
17991;SDS011;9121;50.926;5.340;2023-02-03T13:09:19;16.77;;;6.60;;
17991;SDS011;9121;50.926;5.340;2023-02-03T13:11:53;12.67;;;5.83;;
17991;SDS011;9121;50.926;5.340;2023-02-03T13:14:27;10.83;;;5.50;;
17991;SDS011;9121;50.926;5.340;2023-02-03T13:16:59;11.83;;;6.93;;
17991;SDS011;9121;50.926;5.340;2023-02-03T13:19:33;13.43;;;6.23;;
17991;SDS011;9121;50.926;5.340;2023-02-03T13:22:12;15.23;;;5.93;;
17991;SDS011;9121;50.926;5.340;2023-02-03T13:24:42;15.43;;;7.27;;
17991;SDS011;9121;50.926;5.340;2023-02-03T13:27:17;17.53;;;7.00;;
17991;SDS011;9121;50.926;5.340;2023-02-03T13:29:57;17.50;;;6.37;;
17991;SDS011;9121;50.926;5.340;2023-02-03T13:32:52;18.20;;;6.10;;
17991;SDS011;9121;50.926;5.340;2023-02-03T13:35:40;13.90;;;6.03;;
17991;SDS011;9121;50.926;5.340;2023-02-03T13:38:25;10.10;;;5.37;;
17991;SDS011;9121;50.926;5.340;2023-02-03T13:41:15;12.27;;;5.40;;
17991;SDS011;9121;50.926;5.340;2023-02-03T13:43:47;10.03;;;5.73;;
17991;SDS011;9121;50.926;5.340;2023-02-03T13:46:18;12.63;;;5.17;;
17991;SDS011;9121;50.926;5.340;2023-02-03T13:48:48;10.53;;;4.90;;
17991;SDS011;9121;50.926;5.340;2023-02-03T13:51:17;11.80;;;4.80;;
17991;SDS011;9121;50.926;5.340;2023-02-03T13:53:48;13.83;;;4.60;;
17991;SDS011;9121;50.926;5.340;2023-02-03T13:56:18;13.17;;;4.77;;
17991;SDS011;9121;50.926;5.340;2023-02-03T13:58:57;9.40;;;4.83;;
17991;SDS011;9121;50.926;5.340;2023-02-03T14:01:28;13.53;;;4.33;;
17991;SDS011;9121;50.926;5.340;2023-02-03T14:03:58;9.20;;;4.40;;
17991;SDS011;9121;50.926;5.340;2023-02-03T14:09:40;9.20;;;3.87;;
17991;SDS011;9121;50.926;5.340;2023-02-03T14:12:22;9.13;;;3.97;;
17991;SDS011;9121;50.926;5.340;2023-02-03T14:14:59;9.50;;;3.60;;
17991;SDS011;9121;50.926;5.340;2023-02-03T14:20:33;13.57;;;3.90;;
17991;SDS011;9121;50.926;5.340;2023-02-03T14:23:21;13.83;;;3.73;;
17991;SDS011;9121;50.926;5.340;2023-02-03T14:25:53;12.13;;;4.20;;
17991;SDS011;9121;50.926;5.340;2023-02-03T14:28:22;10.43;;;3.80;;
17991;SDS011;9121;50.926;5.340;2023-02-03T14:31:06;10.77;;;3.90;;
17991;SDS011;9121;50.926;5.340;2023-02-03T14:33:53;13.17;;;4.00;;
17991;SDS011;9121;50.926;5.340;2023-02-03T14:36:40;17.10;;;4.10;;
17991;SDS011;9121;50.926;5.340;2023-02-03T14:42:10;11.00;;;4.50;;
17991;SDS011;9121;50.926;5.340;2023-02-03T14:44:45;13.30;;;5.83;;
17991;SDS011;9121;50.926;5.340;2023-02-03T14:47:25;9.17;;;5.03;;
17991;SDS011;9121;50.926;5.340;2023-02-03T14:50:17;10.13;;;4.87;;
17991;SDS011;9121;50.926;5.340;2023-02-03T14:52:59;15.13;;;5.30;;
17991;SDS011;9121;50.926;5.340;2023-02-03T14:55:43;11.93;;;5.50;;
17991;SDS011;9121;50.926;5.340;2023-02-03T14:58:20;11.77;;;5.20;;
17991;SDS011;9121;50.926;5.340;2023-02-03T15:00:51;14.90;;;5.33;;
17991;SDS011;9121;50.926;5.340;2023-02-03T15:03:23;10.40;;;5.40;;
17991;SDS011;9121;50.926;5.340;2023-02-03T15:05:53;8.80;;;5.50;;
17991;SDS011;9121;50.926;5.340;2023-02-03T15:08:34;10.07;;;5.67;;
17991;SDS011;9121;50.926;5.340;2023-02-03T15:11:23;7.47;;;4.60;;
17991;SDS011;9121;50.926;5.340;2023-02-03T15:13:54;8.87;;;4.60;;
17991;SDS011;9121;50.926;5.340;2023-02-03T15:16:22;10.97;;;4.63;;
17991;SDS011;9121;50.926;5.340;2023-02-03T15:18:54;8.70;;;4.40;;
17991;SDS011;9121;50.926;5.340;2023-02-03T15:21:23;9.13;;;4.43;;
17991;SDS011;9121;50.926;5.340;2023-02-03T15:23:50;12.97;;;4.83;;
17991;SDS011;9121;50.926;5.340;2023-02-03T15:26:18;9.80;;;4.63;;
17991;SDS011;9121;50.926;5.340;2023-02-03T15:28:55;10.13;;;4.40;;
17991;SDS011;9121;50.926;5.340;2023-02-03T15:31:25;6.07;;;3.50;;
17991;SDS011;9121;50.926;5.340;2023-02-03T15:33:58;10.37;;;4.10;;